createdAt,value
2018-04-16T00:00:35.260Z,3.90
2018-04-16T00:03:02.210Z,4.30
2018-04-16T00:05:28.457Z,4.20
2018-04-16T00:07:54.700Z,4.63
2018-04-16T00:10:20.959Z,4.53
2018-04-16T00:12:47.244Z,4.23
2018-04-16T00:15:13.504Z,6.70
2018-04-16T00:17:40.481Z,4.30
2018-04-16T00:20:06.526Z,5.40
2018-04-16T00:22:32.643Z,4.83
2018-04-16T00:24:58.716Z,4.37
2018-04-16T00:27:24.964Z,4.10
2018-04-16T00:29:51.195Z,4.77
2018-04-16T00:32:18.406Z,4.30
2018-04-16T00:34:50.764Z,4.53
2018-04-16T00:37:23.223Z,5.00
2018-04-16T00:39:55.590Z,4.70
2018-04-16T00:42:28.689Z,4.63
2018-04-16T00:45:01.897Z,6.67
2018-04-16T00:47:35.092Z,4.53
2018-04-16T00:50:08.264Z,4.40
2018-04-16T00:52:40.481Z,5.20
2018-04-16T00:55:12.784Z,5.20
2018-04-16T00:57:55.156Z,4.80
2018-04-16T01:00:27.971Z,4.80
2018-04-16T01:03:00.129Z,13.70
2018-04-16T01:05:33.004Z,4.40
2018-04-16T01:08:05.117Z,4.63
2018-04-16T01:10:38.054Z,4.37
2018-04-16T01:13:11.721Z,4.73
2018-04-16T01:15:44.553Z,4.47
2018-04-16T01:18:16.604Z,4.77
2018-04-16T01:20:50.204Z,4.20
2018-04-16T01:23:23.481Z,4.93
2018-04-16T01:25:55.735Z,4.80
2018-04-16T01:28:27.789Z,4.57
2018-04-16T01:31:00.205Z,4.17
2018-04-16T01:33:32.699Z,4.73
2018-04-16T01:36:04.999Z,4.43
2018-04-16T01:38:37.256Z,5.37
2018-04-16T01:41:10.403Z,5.03
2018-04-16T01:43:42.780Z,4.33
2018-04-16T01:46:15.815Z,4.47
2018-04-16T01:48:48.143Z,5.00
2018-04-16T01:51:20.650Z,4.60
2018-04-16T01:53:53.104Z,5.30
2018-04-16T01:56:25.436Z,5.30
2018-04-16T01:58:58.449Z,5.33
2018-04-16T02:01:31.585Z,6.83
2018-04-16T02:04:04.033Z,6.73
2018-04-16T02:06:36.428Z,6.03
2018-04-16T02:09:08.664Z,4.63
2018-04-16T02:11:40.908Z,5.23
2018-04-16T02:14:13.311Z,5.47
2018-04-16T02:16:45.604Z,5.40
2018-04-16T02:19:17.869Z,5.97
2018-04-16T02:21:51.113Z,5.53
2018-04-16T02:24:23.465Z,5.70
2018-04-16T02:26:55.746Z,5.73
2018-04-16T02:29:28.977Z,5.40
2018-04-16T02:32:10.956Z,6.63
2018-04-16T02:34:43.163Z,5.57
2018-04-16T02:37:15.345Z,5.93
2018-04-16T02:39:47.439Z,5.37
2018-04-16T02:42:19.783Z,6.77
2018-04-16T02:44:52.070Z,6.00
2018-04-16T02:47:24.208Z,6.23
2018-04-16T02:49:57.281Z,6.50
2018-04-16T02:52:29.279Z,7.67
2018-04-16T02:55:01.330Z,6.73
2018-04-16T02:57:33.739Z,7.23
2018-04-16T03:00:05.800Z,7.70
2018-04-16T03:02:37.975Z,7.00
2018-04-16T03:05:10.742Z,9.30
2018-04-16T03:07:42.948Z,8.03
2018-04-16T03:10:15.030Z,7.03
2018-04-16T03:12:47.114Z,6.70
2018-04-16T03:15:19.359Z,9.00
2018-04-16T03:17:51.458Z,6.93
2018-04-16T03:20:23.680Z,6.77
2018-04-16T03:22:56.515Z,6.90
2018-04-16T03:25:28.711Z,6.67
2018-04-16T03:28:00.858Z,8.00
2018-04-16T03:30:33.177Z,6.50
2018-04-16T03:33:05.466Z,7.17
2018-04-16T03:35:37.821Z,7.67
2018-04-16T03:38:10.738Z,8.37
2018-04-16T03:40:43.105Z,7.23
2018-04-16T03:43:15.481Z,7.07
2018-04-16T03:45:47.672Z,7.03
2018-04-16T03:48:20.658Z,9.70
2018-04-16T03:50:53.988Z,7.87
2018-04-16T03:53:21.036Z,7.73
2018-04-16T03:58:42.672Z,9.50
2018-04-16T04:01:09.688Z,7.53
2018-04-16T04:03:35.952Z,7.30
2018-04-16T04:06:02.225Z,9.77
2018-04-16T04:08:28.493Z,8.60
2018-04-16T04:10:54.763Z,12.27
2018-04-16T04:13:21.000Z,8.27
2018-04-16T04:15:47.604Z,8.30
2018-04-16T04:18:14.580Z,8.23
2018-04-16T04:20:40.821Z,8.70
2018-04-16T04:23:20.171Z,9.50
2018-04-16T04:25:59.737Z,9.63
2018-04-16T04:28:38.288Z,10.90
2018-04-16T04:31:04.503Z,8.87
2018-04-16T04:33:30.749Z,9.37
2018-04-16T04:35:56.996Z,9.80
2018-04-16T04:38:23.251Z,10.60
2018-04-16T04:40:49.506Z,10.40
2018-04-16T04:43:15.743Z,10.57
2018-04-16T04:45:42.016Z,11.40
2018-04-16T04:48:08.251Z,8.30
2018-04-16T04:50:34.528Z,8.53
2018-04-16T04:53:00.901Z,11.70
2018-04-16T04:55:27.847Z,12.60
2018-04-16T04:57:54.104Z,10.63
2018-04-16T05:00:20.362Z,10.67
2018-04-16T05:02:46.691Z,10.00
2018-04-16T05:05:12.914Z,10.17
2018-04-16T05:07:39.161Z,10.40
2018-04-16T05:10:05.400Z,10.40
2018-04-16T05:12:31.647Z,11.10
2018-04-16T05:14:57.896Z,11.60
2018-04-16T05:17:24.155Z,11.17
2018-04-16T05:19:50.407Z,11.43
2018-04-16T05:22:17.392Z,11.53
2018-04-16T05:24:43.656Z,15.23
2018-04-16T05:27:09.916Z,13.80
2018-04-16T05:29:36.165Z,10.80
2018-04-16T05:32:02.405Z,12.40
2018-04-16T05:34:28.679Z,12.83
2018-04-16T05:36:55.676Z,11.53
2018-04-16T05:39:21.896Z,10.77
2018-04-16T05:41:48.860Z,11.30
2018-04-16T05:44:15.140Z,11.97
2018-04-16T05:46:41.404Z,11.70
2018-04-16T05:49:07.632Z,11.23
2018-04-16T05:51:33.864Z,12.50
2018-04-16T05:54:00.213Z,12.10
2018-04-16T05:56:26.442Z,11.33
2018-04-16T05:58:52.705Z,10.63
2018-04-16T06:01:18.951Z,11.23
2018-04-16T06:03:45.176Z,12.03
2018-04-16T06:06:11.400Z,11.90
2018-04-16T06:08:37.633Z,11.40
2018-04-16T06:11:04.353Z,12.43
2018-04-16T06:13:31.331Z,12.20
2018-04-16T06:15:58.129Z,12.20
2018-04-16T06:18:24.377Z,11.60
2018-04-16T06:20:51.076Z,10.80
2018-04-16T06:23:17.328Z,12.20
2018-04-16T06:25:43.576Z,12.50
2018-04-16T06:28:09.826Z,12.07
2018-04-16T06:30:36.100Z,11.30
2018-04-16T06:33:02.360Z,12.80
2018-04-16T06:35:29.380Z,12.63
2018-04-16T06:37:55.620Z,12.23
2018-04-16T06:40:21.896Z,12.60
2018-04-16T06:42:48.884Z,16.50
2018-04-16T06:45:15.155Z,11.20
2018-04-16T06:47:41.404Z,10.63
2018-04-16T06:50:08.812Z,11.87
2018-04-16T06:52:35.064Z,10.70
2018-04-16T06:55:01.400Z,12.37
2018-04-16T06:57:27.704Z,10.90
2018-04-16T06:59:54.108Z,10.30
2018-04-16T07:02:20.388Z,11.20
2018-04-16T07:04:47.409Z,11.43
2018-04-16T07:07:13.693Z,9.90
2018-04-16T07:09:40.000Z,10.90
2018-04-16T07:12:06.255Z,11.10
2018-04-16T07:14:32.696Z,11.90
2018-04-16T07:16:59.761Z,11.10
2018-04-16T07:19:26.057Z,10.23
2018-04-16T07:21:53.862Z,11.00
2018-04-16T07:24:20.504Z,11.57
2018-04-16T07:26:46.756Z,10.80
2018-04-16T07:29:13.436Z,10.60
2018-04-16T07:31:39.715Z,10.93
2018-04-16T07:34:06.040Z,10.73
2018-04-16T07:36:32.393Z,10.17
2018-04-16T07:38:59.972Z,10.47
2018-04-16T07:41:26.231Z,10.03
2018-04-16T07:43:52.492Z,10.03
2018-04-16T07:46:18.736Z,8.57
2018-04-16T07:48:44.938Z,9.80
2018-04-16T07:51:11.257Z,9.20
2018-04-16T07:53:38.493Z,12.57
2018-04-16T07:56:04.859Z,9.50
2018-04-16T07:58:31.263Z,9.53
2018-04-16T08:00:57.556Z,9.27
2018-04-16T08:03:24.704Z,13.73
2018-04-16T08:05:50.933Z,10.57
2018-04-16T08:08:17.207Z,9.63
2018-04-16T08:10:43.460Z,9.70
2018-04-16T08:13:09.721Z,12.90
2018-04-16T08:15:35.998Z,9.87
2018-04-16T08:18:02.223Z,10.60
2018-04-16T08:20:28.470Z,12.10
2018-04-16T08:22:54.724Z,14.10
2018-04-16T08:25:22.409Z,10.43
2018-04-16T08:27:51.825Z,9.90
2018-04-16T08:30:18.634Z,9.17
2018-04-16T08:32:44.692Z,8.53
2018-04-16T08:35:10.747Z,13.47
2018-04-16T08:37:36.823Z,10.70
2018-04-16T08:40:02.885Z,10.10
2018-04-16T08:42:28.928Z,10.80
2018-04-16T08:44:59.837Z,15.40
2018-04-16T08:47:26.625Z,14.10
2018-04-16T08:49:52.660Z,8.30
2018-04-16T08:52:18.688Z,9.87
2018-04-16T08:54:44.724Z,9.20
2018-04-16T08:57:10.837Z,7.60
2018-04-16T08:59:36.870Z,9.97
2018-04-16T09:02:03.759Z,9.47
2018-04-16T09:04:33.648Z,11.90
2018-04-16T09:06:59.684Z,11.03
2018-04-16T09:09:25.713Z,9.07
2018-04-16T09:11:51.744Z,8.97
2018-04-16T09:14:17.852Z,9.90
2018-04-16T09:16:43.875Z,8.87
2018-04-16T09:19:09.925Z,7.93
2018-04-16T09:21:35.994Z,13.17
2018-04-16T09:24:02.028Z,7.53
2018-04-16T09:26:28.076Z,10.13
2018-04-16T09:28:54.119Z,11.83
2018-04-16T09:31:20.161Z,7.73
2018-04-16T09:33:46.225Z,7.80
2018-04-16T09:36:12.574Z,9.53
2018-04-16T09:38:39.553Z,8.50
2018-04-16T09:41:05.663Z,8.80
2018-04-16T09:43:31.740Z,8.43
2018-04-16T09:45:57.797Z,15.70
2018-04-16T09:48:24.036Z,10.40
2018-04-16T09:50:50.307Z,8.90
2018-04-16T09:53:17.312Z,12.57
2018-04-16T09:55:43.600Z,9.83
2018-04-16T09:58:10.599Z,9.60
2018-04-16T10:00:43.081Z,8.47
2018-04-16T10:03:15.544Z,8.20
2018-04-16T10:05:42.607Z,7.93
2018-04-16T10:08:08.917Z,6.93
2018-04-16T10:10:35.197Z,7.20
2018-04-16T10:13:02.228Z,6.97
2018-04-16T10:15:29.275Z,7.83
2018-04-16T10:17:55.656Z,8.30
2018-04-16T10:20:21.875Z,7.30
2018-04-16T10:22:48.965Z,7.60
2018-04-16T10:25:15.265Z,6.43
2018-04-16T10:27:41.543Z,7.00
2018-04-16T10:30:08.598Z,9.17
2018-04-16T10:32:34.934Z,6.90
2018-04-16T10:35:01.345Z,7.10
2018-04-16T10:37:27.654Z,6.60
2018-04-16T10:39:54.027Z,9.20
2018-04-16T10:42:20.304Z,6.87
2018-04-16T10:44:47.334Z,7.60
2018-04-16T10:47:13.584Z,9.70
2018-04-16T10:49:40.672Z,9.10
2018-04-16T10:52:06.903Z,8.97
2018-04-16T10:54:33.151Z,8.33
2018-04-16T10:57:00.168Z,9.17
2018-04-16T10:59:26.404Z,9.07
2018-04-16T11:01:57.316Z,11.33
2018-04-16T11:04:23.600Z,10.03
2018-04-16T11:06:49.922Z,11.20
2018-04-16T11:09:16.902Z,11.30
2018-04-16T11:11:43.159Z,11.20
2018-04-16T11:14:09.472Z,10.93
2018-04-16T11:16:35.794Z,10.40
2018-04-16T11:19:03.489Z,11.07
2018-04-16T11:21:30.484Z,12.30
2018-04-16T11:23:56.552Z,11.30
2018-04-16T11:26:23.570Z,12.53
2018-04-16T11:28:49.670Z,13.03
2018-04-16T11:31:15.865Z,13.77
2018-04-16T11:33:41.927Z,15.10
2018-04-16T11:36:07.980Z,14.50
2018-04-16T11:38:35.585Z,15.53
2018-04-16T11:41:02.488Z,14.33
2018-04-16T11:43:28.796Z,13.40
2018-04-16T11:45:54.872Z,12.40
2018-04-16T11:48:20.947Z,12.00
2018-04-16T11:50:47.037Z,11.37
2018-04-16T11:53:13.129Z,11.60
2018-04-16T11:55:39.236Z,11.37
2018-04-16T11:58:05.535Z,13.23
2018-04-16T12:00:33.314Z,14.80
2018-04-16T12:02:59.376Z,13.90
2018-04-16T12:05:25.449Z,12.90
2018-04-16T12:07:52.251Z,14.67
2018-04-16T12:10:18.392Z,15.03
2018-04-16T12:12:45.353Z,14.80
2018-04-16T12:15:11.656Z,16.33
2018-04-16T12:17:37.920Z,17.67
2018-04-16T12:20:08.146Z,16.70
2018-04-16T12:22:34.363Z,17.03
2018-04-16T12:25:00.432Z,13.80
2018-04-16T12:27:26.496Z,12.37
2018-04-16T12:29:52.546Z,11.63
2018-04-16T12:32:18.611Z,11.47
2018-04-16T12:34:44.682Z,9.83
2018-04-16T12:37:11.509Z,9.73
2018-04-16T12:39:37.542Z,10.17
2018-04-16T12:42:04.842Z,10.43
2018-04-16T12:44:32.220Z,12.97
2018-04-16T12:46:58.271Z,10.10
2018-04-16T12:49:24.345Z,11.07
2018-04-16T12:51:50.387Z,10.50
2018-04-16T12:54:16.419Z,11.40
2018-04-16T12:56:42.479Z,8.70
2018-04-16T12:59:08.505Z,9.63
2018-04-16T13:01:36.767Z,10.00
2018-04-16T13:04:02.807Z,8.40
2018-04-16T13:06:28.832Z,7.30
2018-04-16T13:08:54.892Z,9.07
2018-04-16T13:11:20.944Z,7.80
2018-04-16T13:13:46.983Z,10.60
2018-04-16T13:16:13.110Z,8.10
2018-04-16T13:18:39.531Z,8.40
2018-04-16T13:21:06.916Z,7.90
2018-04-16T13:23:32.964Z,7.47
2018-04-16T13:25:59.036Z,7.57
2018-04-16T13:28:25.812Z,10.77
2018-04-16T13:30:51.893Z,7.20
2018-04-16T13:33:17.948Z,6.37
2018-04-16T13:35:43.993Z,8.40
2018-04-16T13:38:10.041Z,7.73
2018-04-16T13:40:37.775Z,9.50
2018-04-16T13:43:03.932Z,7.63
2018-04-16T13:45:29.981Z,8.13
2018-04-16T13:47:56.052Z,5.40
2018-04-16T13:50:22.831Z,5.27
2018-04-16T13:52:48.876Z,6.83
2018-04-16T13:55:14.908Z,5.93
2018-04-16T13:57:45.460Z,5.07
2018-04-16T14:00:11.521Z,6.30
2018-04-16T14:02:37.548Z,7.70
2018-04-16T14:05:03.644Z,9.27
2018-04-16T14:07:29.745Z,11.00
2018-04-16T14:09:55.848Z,7.27
2018-04-16T14:12:21.888Z,8.60
2018-04-16T14:14:47.955Z,9.37
2018-04-16T14:17:13.989Z,8.50
2018-04-16T14:19:43.472Z,9.93
2018-04-16T14:22:09.528Z,7.67
2018-04-16T14:24:35.576Z,6.43
2018-04-16T14:27:01.616Z,6.90
2018-04-16T14:29:27.684Z,9.30
2018-04-16T14:31:54.502Z,6.50
2018-04-16T14:34:20.613Z,6.77
2018-04-16T14:36:46.689Z,7.40
2018-04-16T14:39:17.401Z,8.37
2018-04-16T14:41:43.476Z,6.50
2018-04-16T14:44:09.550Z,7.30
2018-04-16T14:46:36.380Z,7.77
2018-04-16T14:49:02.468Z,5.33
2018-04-16T14:51:28.545Z,5.73
2018-04-16T14:53:54.704Z,7.53
2018-04-16T14:56:20.772Z,10.93
2018-04-16T14:58:51.100Z,8.00
2018-04-16T15:01:17.961Z,8.67
2018-04-16T15:03:44.061Z,8.17
2018-04-16T15:06:10.130Z,6.60
2018-04-16T15:08:36.231Z,7.67
2018-04-16T15:11:02.321Z,8.27
2018-04-16T15:13:29.264Z,7.90
2018-04-16T15:16:00.948Z,7.80
2018-04-16T15:18:27.833Z,7.53
2018-04-16T15:20:54.045Z,6.37
2018-04-16T15:23:20.897Z,8.90
2018-04-16T15:25:47.883Z,6.80
2018-04-16T15:28:14.641Z,8.70
2018-04-16T15:30:40.775Z,7.20
2018-04-16T15:33:07.293Z,6.93
2018-04-16T15:35:33.344Z,7.87
2018-04-16T15:37:59.446Z,7.07
2018-04-16T15:40:25.506Z,5.93
2018-04-16T15:42:51.622Z,10.70
2018-04-16T15:45:17.759Z,6.87
2018-04-16T15:47:43.905Z,7.33
2018-04-16T15:50:10.752Z,5.10
2018-04-16T15:52:36.859Z,7.50
2018-04-16T15:55:02.888Z,10.00
2018-04-16T15:57:28.980Z,6.10
2018-04-16T15:59:55.813Z,8.07
2018-04-16T16:02:21.964Z,7.30
2018-04-16T16:04:48.090Z,7.67
2018-04-16T16:07:14.124Z,7.43
2018-04-16T16:09:40.174Z,7.70
2018-04-16T16:12:07.023Z,6.47
2018-04-16T16:14:33.836Z,6.30
2018-04-16T16:16:59.875Z,5.23
2018-04-16T16:19:25.905Z,6.30
2018-04-16T16:21:51.941Z,7.97
2018-04-16T16:24:17.976Z,8.57
2018-04-16T16:26:44.762Z,7.60
2018-04-16T16:29:10.820Z,9.40
2018-04-16T16:31:37.705Z,12.43
2018-04-16T16:34:03.796Z,8.87
2018-04-16T16:36:29.911Z,8.23
2018-04-16T16:38:55.992Z,6.37
2018-04-16T16:41:24.164Z,9.87
2018-04-16T16:43:50.233Z,6.90
2018-04-16T16:46:16.324Z,6.60
2018-04-16T16:48:42.384Z,5.30
2018-04-16T16:51:08.467Z,5.73
2018-04-16T16:53:34.538Z,9.50
2018-04-16T16:56:00.669Z,6.40
2018-04-16T16:58:31.440Z,9.53
2018-04-16T17:00:57.734Z,6.80
2018-04-16T17:03:23.854Z,6.43
2018-04-16T17:05:50.715Z,4.30
2018-04-16T17:08:17.528Z,4.43
2018-04-16T17:10:43.685Z,5.60
2018-04-16T17:13:09.771Z,6.00
2018-04-16T17:15:38.556Z,9.33
2018-04-16T17:18:05.382Z,4.50
2018-04-16T17:20:31.449Z,7.73
2018-04-16T17:22:57.549Z,5.00
2018-04-16T17:25:23.652Z,7.23
2018-04-16T17:27:50.454Z,7.60
2018-04-16T17:30:16.520Z,9.27
2018-04-16T17:32:42.594Z,10.17
2018-04-16T17:35:08.640Z,6.10
2018-04-16T17:37:34.820Z,6.70
2018-04-16T17:40:00.884Z,6.80
2018-04-16T17:42:27.701Z,5.63
2018-04-16T17:44:53.787Z,6.43
2018-04-16T17:47:19.912Z,8.03
2018-04-16T17:49:46.732Z,5.13
2018-04-16T17:52:12.813Z,5.13
2018-04-16T17:54:39.641Z,8.40
2018-04-16T17:57:05.716Z,5.00
2018-04-16T17:59:31.812Z,6.10
2018-04-16T18:01:57.888Z,5.23
2018-04-16T18:04:23.962Z,5.47
2018-04-16T18:06:50.117Z,4.47
2018-04-16T18:09:16.322Z,6.07
2018-04-16T18:11:42.756Z,6.83
2018-04-16T18:14:08.816Z,7.70
2018-04-16T18:16:36.321Z,6.00
2018-04-16T18:19:03.069Z,9.23
2018-04-16T18:21:29.195Z,7.90
2018-04-16T18:23:55.275Z,4.93
2018-04-16T18:26:22.152Z,6.27
2018-04-16T18:28:48.212Z,4.90
2018-04-16T18:31:14.308Z,9.90
2018-04-16T18:33:40.501Z,6.13
2018-04-16T18:36:09.420Z,4.87
2018-04-16T18:38:35.480Z,4.40
2018-04-16T18:41:01.554Z,5.60
2018-04-16T18:43:28.352Z,7.10
2018-04-16T18:45:54.426Z,5.20
2018-04-16T18:48:20.660Z,6.80
2018-04-16T18:50:46.744Z,3.97
2018-04-16T18:53:15.897Z,3.97
2018-04-16T18:55:41.962Z,6.17
2018-04-16T18:58:08.010Z,4.50
2018-04-16T19:00:34.824Z,8.93
2018-04-16T19:03:00.863Z,5.70
2018-04-16T19:05:26.896Z,8.53
2018-04-16T19:07:52.964Z,8.13
2018-04-16T19:10:19.029Z,5.77
2018-04-16T19:12:46.572Z,7.00
2018-04-16T19:15:12.625Z,10.93
2018-04-16T19:17:45.522Z,6.60
2018-04-16T19:20:12.320Z,7.60
2018-04-16T19:22:38.376Z,6.37
2018-04-16T19:25:09.424Z,7.43
2018-04-16T19:27:41.672Z,6.97
2018-04-16T19:30:08.441Z,6.30
2018-04-16T19:35:32.828Z,7.23
2018-04-16T19:37:58.893Z,8.07
2018-04-16T19:40:29.956Z,6.33
2018-04-16T19:42:56.073Z,12.33
2018-04-16T19:45:24.212Z,7.33
2018-04-16T19:47:51.796Z,7.60
2018-04-16T19:50:17.836Z,7.50
2018-04-16T19:52:43.885Z,7.63
2018-04-16T19:55:09.915Z,9.47
2018-04-16T19:57:45.756Z,12.30
2018-04-16T20:00:11.855Z,9.20
2018-04-16T20:02:44.748Z,9.43
2018-04-16T20:05:10.816Z,10.67
2018-04-16T20:07:37.632Z,7.20
2018-04-16T20:10:04.003Z,7.67
2018-04-16T20:12:30.867Z,12.20
2018-04-16T20:14:57.689Z,7.97
2018-04-16T20:17:23.736Z,11.63
2018-04-16T20:19:49.796Z,8.57
2018-04-16T20:22:16.572Z,12.47
2018-04-16T20:24:42.641Z,11.80
2018-04-16T20:27:09.451Z,11.97
2018-04-16T20:29:36.303Z,10.80
2018-04-16T20:32:02.371Z,8.27
2018-04-16T20:34:28.424Z,10.40
2018-04-16T20:36:54.491Z,9.50
2018-04-16T20:39:21.288Z,9.40
2018-04-16T20:41:47.372Z,7.97
2018-04-16T20:44:13.424Z,10.90
2018-04-16T20:46:40.206Z,11.47
2018-04-16T20:49:06.296Z,10.47
2018-04-16T20:51:32.340Z,13.83
2018-04-16T20:53:59.145Z,9.30
2018-04-16T20:56:25.206Z,9.83
2018-04-16T20:58:52.004Z,13.13
2018-04-16T21:01:18.768Z,8.93
2018-04-16T21:03:44.816Z,11.17
2018-04-16T21:06:10.857Z,10.17
2018-04-16T21:08:36.906Z,10.97
2018-04-16T21:11:02.931Z,10.00
2018-04-16T21:13:32.777Z,8.87
2018-04-16T21:15:58.816Z,9.47
2018-04-16T21:18:24.872Z,14.07
2018-04-16T21:20:50.953Z,8.90
2018-04-16T21:23:16.940Z,12.80
2018-04-16T21:25:43.017Z,9.93
2018-04-16T21:28:09.123Z,9.73
2018-04-16T21:30:35.319Z,14.50
2018-04-16T21:33:03.949Z,13.90
2018-04-16T21:35:30.044Z,10.03
2018-04-16T21:37:56.849Z,12.33
2018-04-16T21:40:22.915Z,10.47
2018-04-16T21:42:49.077Z,13.10
2018-04-16T21:45:15.211Z,12.33
2018-04-16T21:47:42.061Z,12.90
2018-04-16T21:50:08.866Z,10.07
2018-04-16T21:52:35.034Z,10.50
2018-04-16T21:55:01.114Z,13.20
2018-04-16T21:57:28.113Z,14.20
2018-04-16T21:59:55.621Z,10.90
2018-04-16T22:02:22.419Z,11.83
2018-04-16T22:04:48.491Z,11.53
2018-04-16T22:07:14.557Z,10.23
2018-04-16T22:09:41.739Z,9.27
2018-04-16T22:12:07.807Z,13.10
2018-04-16T22:14:33.907Z,15.10
2018-04-16T22:16:59.976Z,11.80
2018-04-16T22:19:26.256Z,10.20
2018-04-16T22:21:52.520Z,10.27
2018-04-16T22:24:19.539Z,11.53
2018-04-16T22:26:45.836Z,14.03
2018-04-16T22:29:12.128Z,10.40
2018-04-16T22:31:38.409Z,10.00
2018-04-16T22:34:05.441Z,9.03
2018-04-16T22:36:31.704Z,8.87
2018-04-16T22:38:59.032Z,8.60
2018-04-16T22:41:25.337Z,8.93
2018-04-16T22:43:51.585Z,9.20
2018-04-16T22:46:17.862Z,13.80
2018-04-16T22:48:44.107Z,8.83
2018-04-16T22:51:10.339Z,10.77
2018-04-16T22:53:36.559Z,16.07
2018-04-16T22:56:02.823Z,9.03
2018-04-16T22:58:29.064Z,9.73
2018-04-16T23:00:55.351Z,9.40
2018-04-16T23:03:22.327Z,11.90
2018-04-16T23:05:48.547Z,10.20
2018-04-16T23:08:15.533Z,7.77
2018-04-16T23:10:41.782Z,10.20
2018-04-16T23:13:08.037Z,9.27
2018-04-16T23:15:34.280Z,11.67
2018-04-16T23:18:01.316Z,8.30
2018-04-16T23:20:28.324Z,14.70
2018-04-16T23:22:54.575Z,14.57
2018-04-16T23:25:20.824Z,10.80
2018-04-16T23:27:47.791Z,12.63
2018-04-16T23:30:14.101Z,11.80
2018-04-16T23:32:40.340Z,12.47
2018-04-16T23:35:06.561Z,10.13
2018-04-16T23:37:32.848Z,13.60
2018-04-16T23:39:59.103Z,13.40
2018-04-16T23:42:26.081Z,13.57
2018-04-16T23:44:52.346Z,11.37
2018-04-16T23:47:18.667Z,9.77
2018-04-16T23:49:44.871Z,9.00
2018-04-16T23:52:11.888Z,7.57
2018-04-16T23:54:38.135Z,11.17
2018-04-16T23:57:04.507Z,12.13
2018-04-16T23:59:32.328Z,11.63
